Time;durP1;ratioP1;P1;durP2;ratioP2;P2;SDS_P1;SDS_P2;PMS_P1;PMS_P2;Temp;Humidity;BMP_temperature;BMP_pressure;BME280_temperature;BME280_humidity;BME280_pressure;Samples;Min_cycle;Max_cycle;Signal;HPM_P1;HPM_P2
2022/01/20 00:00:01;;;;;;;23.05;3.63;;;4.80;99.90;;;;;;5074129;28;20067;-74
2022/01/20 00:02:29;;;;;;;18.50;3.55;;;4.70;99.90;;;;;;5057402;28;20036;-74
2022/01/20 00:05:11;;;;;;;21.02;2.78;;;4.70;99.90;;;;;;5074068;28;20041;-74
2022/01/20 00:26:24;;;;;;;17.15;2.50;;;4.40;99.90;;;;;;5073845;28;20044;-74
2022/01/20 00:28:53;;;;;;;15.93;2.22;;;4.40;99.90;;;;;;5056867;28;20521;-74
2022/01/20 00:33:56;;;;;;;18.58;2.97;;;4.50;99.90;;;;;;5073529;28;20048;-74
2022/01/20 00:39:06;;;;;;;23.92;3.45;;;4.50;99.90;;;;;;5073551;28;20049;-74
2022/01/20 00:41:32;;;;;;;15.73;2.20;;;4.50;99.90;;;;;;5073241;28;20109;-74
2022/01/20 00:43:58;;;;;;;16.33;2.22;;;4.50;99.90;;;;;;5073524;28;20031;-74
2022/01/20 00:46:23;;;;;;;14.63;1.98;;;4.50;99.90;;;;;;5073524;28;20543;-74
2022/01/20 00:48:49;;;;;;;13.25;2.30;;;4.50;99.90;;;;;;5073185;28;20490;-74
2022/01/20 00:51:14;;;;;;;16.25;2.20;;;4.40;99.90;;;;;;5073076;28;20037;-74
2022/01/20 00:53:44;;;;;;;14.73;2.33;;;4.40;99.90;;;;;;5073100;28;20036;-74
2022/01/20 00:56:13;;;;;;;12.32;1.92;;;4.40;99.90;;;;;;5073865;28;20557;-74
2022/01/20 00:58:40;;;;;;;15.52;2.15;;;4.40;99.90;;;;;;5072896;28;20041;-74
2022/01/20 01:01:06;;;;;;;17.88;2.03;;;4.40;99.90;;;;;;5072790;28;20089;-74
2022/01/20 01:03:31;;;;;;;14.70;2.10;;;4.40;99.90;;;;;;5072349;28;20127;-74
2022/01/20 01:08:41;;;;;;;18.73;1.95;;;4.30;99.90;;;;;;5072795;28;20123;-74
2022/01/20 01:11:08;;;;;;;16.52;2.33;;;4.30;99.90;;;;;;5072708;28;20158;-74
2022/01/20 01:13:33;;;;;;;15.82;2.80;;;4.30;99.90;;;;;;5072666;28;20037;-74
2022/01/20 01:15:59;;;;;;;12.45;2.10;;;4.30;99.90;;;;;;5072825;28;20033;-74
2022/01/20 01:23:41;;;;;;;15.40;2.22;;;4.30;99.90;;;;;;5072691;28;20190;-74
2022/01/20 01:26:17;;;;;;;18.65;2.42;;;4.30;99.90;;;;;;5072437;28;20048;-74
2022/01/20 01:28:44;;;;;;;17.67;3.00;;;4.30;99.90;;;;;;5072377;28;20417;-74
2022/01/20 01:31:32;;;;;;;19.42;2.42;;;4.30;99.90;;;;;;5055915;28;20105;-74
2022/01/20 01:34:02;;;;;;;14.60;2.10;;;4.30;99.90;;;;;;5072667;28;20063;-74
2022/01/20 01:36:32;;;;;;;18.95;1.83;;;4.30;99.90;;;;;;5072316;28;20417;-74
2022/01/20 01:38:58;;;;;;;17.70;2.25;;;4.30;99.90;;;;;;5055631;28;20121;-74
2022/01/20 01:41:36;;;;;;;13.70;2.03;;;4.30;99.90;;;;;;5072120;28;20072;-74
2022/01/20 01:44:07;;;;;;;14.07;2.08;;;4.40;99.90;;;;;;5072441;28;20045;-74
2022/01/20 01:46:33;;;;;;;16.63;2.22;;;4.40;99.90;;;;;;5055797;28;20098;-74
2022/01/20 01:48:59;;;;;;;13.73;1.70;;;4.50;99.90;;;;;;5072070;28;20128;-74
2022/01/20 01:51:25;;;;;;;13.75;2.33;;;4.50;99.90;;;;;;5071994;28;20123;-74
2022/01/20 01:53:51;;;;;;;10.88;2.10;;;4.50;99.90;;;;;;5072031;28;20036;-74
2022/01/20 01:56:17;;;;;;;11.13;1.40;;;4.50;99.90;;;;;;5055544;28;20055;-74
2022/01/20 01:58:43;;;;;;;11.32;2.28;;;4.50;99.90;;;;;;5071845;28;20110;-74
2022/01/20 02:01:09;;;;;;;8.65;1.98;;;4.50;99.90;;;;;;5071863;28;20043;-74
2022/01/20 02:03:43;;;;;;;9.30;1.50;;;4.40;99.90;;;;;;5071927;28;20037;-74
2022/01/20 02:06:41;;;;;;;8.75;1.38;;;4.40;99.90;;;;;;5072195;28;20079;-74
2022/01/20 02:19:59;;;;;;;10.63;1.55;;;4.20;99.90;;;;;;5072356;28;20514;-74
2022/01/20 02:22:25;;;;;;;11.98;1.75;;;4.30;99.90;;;;;;5071856;28;20024;-73
2022/01/20 02:24:51;;;;;;;9.88;1.65;;;4.30;99.90;;;;;;5071666;28;20490;-74
2022/01/20 02:27:17;;;;;;;14.27;1.92;;;4.30;99.90;;;;;;5071913;28;20094;-74
2022/01/20 02:29:44;;;;;;;20.83;2.72;;;4.30;99.90;;;;;;5071717;28;20403;-74
2022/01/20 02:32:10;;;;;;;14.88;1.70;;;4.40;99.90;;;;;;5071854;28;20055;-74
2022/01/20 02:34:36;;;;;;;14.07;1.73;;;4.40;99.90;;;;;;5071569;28;20115;-74
2022/01/20 02:37:06;;;;;;;10.77;1.67;;;4.40;99.90;;;;;;5055176;28;20047;-74
2022/01/20 02:44:53;;;;;;;12.95;1.90;;;4.40;99.90;;;;;;5071522;28;20072;-74
2022/01/20 02:47:20;;;;;;;13.67;1.93;;;4.40;99.90;;;;;;5071563;28;20048;-73
2022/01/20 02:49:47;;;;;;;14.45;1.80;;;4.40;99.90;;;;;;5071707;28;20348;-74
2022/01/20 02:52:12;;;;;;;16.20;2.22;;;4.40;99.90;;;;;;5071752;28;20094;-74
2022/01/20 02:54:38;;;;;;;9.82;1.52;;;4.40;99.90;;;;;;5071672;28;20040;-74
2022/01/20 02:57:05;;;;;;;15.88;2.08;;;4.40;99.90;;;;;;5071414;28;20040;-74
2022/01/20 02:59:32;;;;;;;14.70;2.10;;;4.40;99.90;;;;;;5054608;28;20048;-74
2022/01/20 03:01:57;;;;;;;13.38;2.63;;;4.40;99.90;;;;;;5054628;28;20041;-74
2022/01/20 03:04:26;;;;;;;21.65;2.70;;;4.30;99.90;;;;;;5054867;28;20059;-74
2022/01/20 03:06:51;;;;;;;16.95;2.45;;;4.30;99.90;;;;;;5071295;28;20041;-74
2022/01/20 03:09:17;;;;;;;20.27;2.97;;;4.30;99.90;;;;;;5071171;28;20042;-74
2022/01/20 03:11:42;;;;;;;20.83;3.10;;;4.30;99.90;;;;;;5071180;28;20044;-74
2022/01/20 03:14:08;;;;;;;15.40;2.63;;;4.30;99.90;;;;;;5071487;28;20044;-74
2022/01/20 03:16:34;;;;;;;13.50;3.13;;;4.30;99.90;;;;;;5054726;28;20491;-74
2022/01/20 03:18:59;;;;;;;20.58;2.63;;;4.30;99.90;;;;;;5071170;28;20536;-74
2022/01/20 03:21:25;;;;;;;21.55;2.72;;;4.30;99.90;;;;;;5071030;28;20050;-74
2022/01/20 03:23:50;;;;;;;23.38;3.20;;;4.30;99.90;;;;;;5071168;28;20075;-74
2022/01/20 03:26:16;;;;;;;27.70;3.38;;;4.30;99.90;;;;;;5071230;28;20041;-74
2022/01/20 03:28:42;;;;;;;19.60;3.22;;;4.30;99.90;;;;;;5074764;28;20045;-74
2022/01/20 03:31:07;;;;;;;23.73;3.20;;;4.30;99.90;;;;;;5074664;28;20052;-74
2022/01/20 03:33:33;;;;;;;21.02;3.88;;;4.30;99.90;;;;;;5074605;28;20048;-74
2022/01/20 03:35:58;;;;;;;26.25;3.42;;;4.30;99.90;;;;;;5074626;28;20040;-74
2022/01/20 03:38:24;;;;;;;26.65;4.43;;;4.30;99.90;;;;;;5074780;28;20047;-74
2022/01/20 03:40:50;;;;;;;26.35;3.80;;;4.30;99.90;;;;;;5057713;28;20040;-74
2022/01/20 03:43:16;;;;;;;23.75;3.65;;;4.30;99.90;;;;;;5074535;28;20051;-74
2022/01/20 03:45:46;;;;;;;23.92;4.90;;;4.30;99.90;;;;;;5074446;28;20036;-74
2022/01/20 03:48:12;;;;;;;31.77;4.30;;;4.30;99.90;;;;;;5057896;28;20041;-74
2022/01/20 03:53:23;;;;;;;30.80;4.68;;;4.30;99.90;;;;;;5074349;28;20087;-74
2022/01/20 03:55:49;;;;;;;25.80;4.55;;;4.30;99.90;;;;;;5074511;28;20036;-74
2022/01/20 03:58:15;;;;;;;31.60;4.40;;;4.30;99.90;;;;;;5057771;28;20037;-74
2022/01/20 04:00:41;;;;;;;22.02;4.32;;;4.30;99.90;;;;;;5074077;28;20351;-74
2022/01/20 04:03:07;;;;;;;19.25;3.85;;;4.30;99.90;;;;;;5074076;28;20040;-74
2022/01/20 04:05:32;;;;;;;22.48;3.60;;;4.20;99.90;;;;;;5074320;28;20123;-74
2022/01/20 04:07:58;;;;;;;25.35;3.67;;;4.20;99.90;;;;;;5074056;28;20391;-74
2022/01/20 04:10:23;;;;;;;24.40;3.88;;;4.30;99.90;;;;;;5074501;28;20066;-74
2022/01/20 04:12:49;;;;;;;22.23;3.75;;;4.20;99.90;;;;;;5057511;28;20039;-74
2022/01/20 04:15:17;;;;;;;21.25;3.47;;;4.20;99.90;;;;;;5074665;28;20490;-73
2022/01/20 04:17:50;;;;;;;18.40;3.42;;;4.20;99.90;;;;;;5073830;28;20040;-73
2022/01/20 04:20:16;;;;;;;14.75;3.20;;;4.30;99.90;;;;;;5056982;28;20037;-73
2022/01/20 04:22:41;;;;;;;22.67;3.65;;;4.20;99.90;;;;;;5073739;28;20524;-73
2022/01/20 04:25:07;;;;;;;18.30;2.95;;;4.20;99.90;;;;;;5073965;28;20123;-73
2022/01/20 04:27:33;;;;;;;21.67;4.15;;;4.20;99.90;;;;;;5056981;28;20490;-73
2022/01/20 04:29:58;;;;;;;23.55;2.92;;;4.20;99.90;;;;;;5073591;28;20040;-73
2022/01/20 04:32:24;;;;;;;23.00;3.22;;;4.20;99.90;;;;;;5073515;28;20040;-72
2022/01/20 04:34:50;;;;;;;13.80;2.85;;;4.20;99.90;;;;;;5073540;28;20043;-73
2022/01/20 04:37:15;;;;;;;14.68;3.05;;;4.20;99.90;;;;;;5073374;28;20048;-73
2022/01/20 04:39:46;;;;;;;20.92;3.35;;;4.20;99.90;;;;;;5073329;28;20050;-73
2022/01/20 04:42:12;;;;;;;15.35;3.17;;;4.20;99.90;;;;;;5073300;28;20124;-73
2022/01/20 04:44:47;;;;;;;22.13;3.38;;;4.20;99.90;;;;;;5073550;28;20127;-73
2022/01/20 04:58:02;;;;;;;20.77;2.95;;;4.00;99.90;;;;;;5073054;28;20131;-73
2022/01/20 05:00:28;;;;;;;16.50;3.00;;;4.00;99.90;;;;;;5072951;28;20123;-73
2022/01/20 05:02:54;;;;;;;19.27;3.28;;;4.00;99.90;;;;;;5073106;28;20494;-73
2022/01/20 05:05:19;;;;;;;16.23;3.10;;;4.00;99.90;;;;;;5056258;28;20041;-73
2022/01/20 05:07:45;;;;;;;19.70;2.97;;;4.00;99.90;;;;;;5072818;28;20036;-73
2022/01/20 05:10:13;;;;;;;15.50;3.47;;;4.00;99.90;;;;;;5072539;28;20044;-73
2022/01/20 05:13:06;;;;;;;21.27;3.20;;;4.00;99.90;;;;;;5072762;28;20044;-73
2022/01/20 05:15:25;;;;;;;21.20;3.92;;;4.00;99.90;;;;;;5072272;28;20048;-73
2022/01/20 05:17:55;;;;;;;15.85;2.63;;;3.90;99.90;;;;;;5055975;28;20040;-73
2022/01/20 05:20:21;;;;;;;20.73;3.40;;;4.00;99.90;;;;;;5072463;28;20575;-73
2022/01/20 05:22:47;;;;;;;22.65;3.65;;;3.90;99.90;;;;;;5072620;28;20075;-73
2022/01/20 05:25:13;;;;;;;25.73;3.25;;;3.90;99.90;;;;;;5072487;28;20040;-73
2022/01/20 05:27:38;;;;;;;19.55;3.33;;;3.80;99.90;;;;;;5072439;28;20082;-73
2022/01/20 05:30:05;;;;;;;22.88;3.53;;;3.80;99.90;;;;;;5055988;28;20048;-73
2022/01/20 05:32:31;;;;;;;19.48;3.67;;;3.80;99.90;;;;;;5072594;28;20047;-73
2022/01/20 05:34:57;;;;;;;17.00;2.80;;;3.80;99.90;;;;;;5072593;28;20075;-73
2022/01/20 05:37:22;;;;;;;17.50;2.83;;;3.80;99.90;;;;;;5072519;28;20117;-73
2022/01/20 05:39:48;;;;;;;12.43;2.53;;;3.80;99.90;;;;;;5072186;28;20387;-73
2022/01/20 05:42:14;;;;;;;9.82;2.20;;;3.80;99.90;;;;;;5072132;28;20119;-73
2022/01/20 05:44:39;;;;;;;9.75;2.05;;;3.70;99.90;;;;;;5072486;28;20090;-73
2022/01/20 05:47:11;;;;;;;10.18;1.70;;;3.70;99.90;;;;;;5072141;28;20497;-73
2022/01/20 05:49:37;;;;;;;8.60;1.35;;;3.70;99.90;;;;;;5071710;28;20115;-73
2022/01/20 05:52:03;;;;;;;9.10;1.90;;;3.60;99.90;;;;;;5072553;28;20123;-73
2022/01/20 05:54:30;;;;;;;16.35;2.58;;;3.50;99.90;;;;;;5072023;28;20036;-73
2022/01/20 05:56:56;;;;;;;14.05;2.10;;;3.50;99.90;;;;;;5072032;28;20131;-73
2022/01/20 05:59:21;;;;;;;12.75;2.42;;;3.40;99.90;;;;;;5072443;28;20127;-73
2022/01/20 06:01:53;;;;;;;13.50;1.95;;;3.40;99.90;;;;;;5055111;28;20500;-73
2022/01/20 06:04:19;;;;;;;10.48;2.45;;;3.30;99.90;;;;;;5071972;28;20513;-73
2022/01/20 06:06:45;;;;;;;13.95;2.40;;;3.30;99.90;;;;;;5055185;28;20048;-73
2022/01/20 06:09:11;;;;;;;11.90;2.00;;;3.20;99.90;;;;;;5071871;28;20036;-73
2022/01/20 06:11:36;;;;;;;12.65;2.00;;;3.20;99.90;;;;;;5071984;28;20046;-73
2022/01/20 06:14:03;;;;;;;21.48;2.88;;;3.20;99.90;;;;;;5071829;28;20036;-73
2022/01/20 06:16:28;;;;;;;11.77;2.35;;;3.10;99.90;;;;;;5072017;28;20072;-73
2022/01/20 06:18:54;;;;;;;15.50;2.80;;;3.10;99.90;;;;;;5071672;28;20494;-73
2022/01/20 06:21:20;;;;;;;13.20;2.17;;;3.10;99.90;;;;;;5071673;28;20094;-73
2022/01/20 06:23:45;;;;;;;14.98;2.85;;;3.10;99.90;;;;;;5071676;28;20041;-73
2022/01/20 06:26:11;;;;;;;12.18;2.33;;;3.10;99.90;;;;;;5055130;28;20101;-73
2022/01/20 06:28:38;;;;;;;15.02;2.13;;;3.10;99.90;;;;;;5055235;28;20543;-73
2022/01/20 06:31:04;;;;;;;15.95;2.63;;;3.10;99.90;;;;;;5071563;28;20036;-73
2022/01/20 06:33:29;;;;;;;19.60;3.35;;;3.10;99.90;;;;;;5071591;28;20086;-73
2022/01/20 06:35:56;;;;;;;17.48;3.08;;;3.00;99.90;;;;;;5071820;28;20036;-73
2022/01/20 06:38:22;;;;;;;15.70;2.33;;;3.00;99.90;;;;;;5055071;28;20513;-73
2022/01/20 06:40:47;;;;;;;18.75;2.80;;;2.90;99.90;;;;;;5071437;28;20037;-73
2022/01/20 06:43:13;;;;;;;22.20;3.40;;;2.90;99.90;;;;;;5071827;28;20032;-73
2022/01/20 06:45:39;;;;;;;12.88;2.58;;;2.80;99.90;;;;;;5071754;28;20586;-73
2022/01/20 06:48:04;;;;;;;18.58;3.45;;;2.90;99.90;;;;;;5071755;28;20510;-73
2022/01/20 06:53:11;;;;;;;18.77;3.10;;;2.90;99.90;;;;;;5102466;23;20065;-73
2022/01/20 06:56:02;;;;;;;16.00;2.70;;;3.00;99.90;;;;;;5018238;28;20049;-73
2022/01/20 06:58:57;;;;;;;16.83;3.05;;;3.00;99.90;;;;;;5034366;28;20088;-73
2022/01/20 07:01:48;;;;;;;14.50;2.90;;;3.00;99.90;;;;;;5023151;28;20462;-73
2022/01/20 07:04:40;;;;;;;16.33;2.70;;;3.00;99.90;;;;;;5035490;28;20494;-73
2022/01/20 07:07:45;;;;;;;18.15;2.50;;;3.00;99.90;;;;;;5036475;28;20521;-73
2022/01/20 07:10:17;;;;;;;16.92;3.38;;;3.00;99.90;;;;;;5018564;28;20100;-73
2022/01/20 07:13:23;;;;;;;19.77;2.92;;;3.00;99.90;;;;;;5002276;28;20037;-73
2022/01/20 07:15:54;;;;;;;18.77;3.15;;;3.00;99.90;;;;;;5018585;28;20050;-73
2022/01/20 07:18:53;;;;;;;16.92;2.92;;;3.00;99.90;;;;;;5018469;28;20116;-74
2022/01/20 07:21:39;;;;;;;15.95;3.03;;;3.00;99.90;;;;;;5036346;28;20037;-74
2022/01/20 07:24:07;;;;;;;15.75;2.50;;;3.10;99.90;;;;;;5018445;28;20033;-74
2022/01/20 07:27:08;;;;;;;17.65;2.72;;;3.10;99.90;;;;;;5018296;28;20411;-74
2022/01/20 07:29:39;;;;;;;14.98;2.88;;;3.10;99.90;;;;;;4939882;29;20095;-74
2022/01/20 07:32:12;;;;;;;17.95;3.65;;;3.10;99.90;;;;;;4939865;29;20171;-74
2022/01/20 07:35:12;;;;;;;14.68;2.63;;;3.10;99.90;;;;;;4939930;29;20051;-74
2022/01/20 07:37:47;;;;;;;20.48;3.33;;;3.10;99.90;;;;;;4939391;29;20047;-74
2022/01/20 07:40:13;;;;;;;19.25;3.30;;;3.10;99.90;;;;;;4939526;29;20059;-73
2022/01/20 07:42:39;;;;;;;22.05;3.65;;;3.10;99.90;;;;;;4939576;29;20043;-74
2022/01/20 07:45:05;;;;;;;23.30;3.83;;;3.10;99.90;;;;;;4939711;29;20047;-74
2022/01/20 07:47:30;;;;;;;16.75;2.70;;;3.20;99.90;;;;;;4955618;29;20051;-74
2022/01/20 07:49:56;;;;;;;23.75;3.47;;;3.20;99.90;;;;;;4939689;29;20089;-74
2022/01/20 07:52:22;;;;;;;18.00;3.22;;;3.10;99.90;;;;;;4939207;29;20525;-74
2022/01/20 07:54:47;;;;;;;20.83;3.00;;;3.10;99.90;;;;;;4939540;29;20047;-74
2022/01/20 07:57:13;;;;;;;14.32;3.17;;;3.10;99.90;;;;;;4939368;29;20050;-74
2022/01/20 07:59:39;;;;;;;16.00;3.50;;;3.10;99.90;;;;;;4939288;29;20146;-74
2022/01/20 08:02:04;;;;;;;22.35;3.60;;;3.10;99.90;;;;;;4939093;29;20107;-73
2022/01/20 08:04:30;;;;;;;21.00;3.03;;;3.10;99.90;;;;;;4939508;29;20437;-73
2022/01/20 08:06:56;;;;;;;16.33;3.47;;;3.10;99.90;;;;;;4983945;28;20392;-73
2022/01/20 08:09:23;;;;;;;17.15;3.00;;;3.10;99.90;;;;;;5017867;28;20428;-73
2022/01/20 08:11:49;;;;;;;18.38;3.28;;;3.10;99.90;;;;;;5017731;28;20060;-74
2022/01/20 08:14:15;;;;;;;22.63;3.47;;;3.10;99.90;;;;;;5017163;28;20388;-74
2022/01/20 08:16:41;;;;;;;16.58;3.28;;;3.10;99.90;;;;;;5017449;28;20045;-74
2022/01/20 08:19:06;;;;;;;20.50;3.88;;;3.10;99.90;;;;;;5017621;28;20045;-74
2022/01/20 08:21:32;;;;;;;20.63;3.35;;;3.10;99.90;;;;;;5017335;28;20499;-74
2022/01/20 08:23:58;;;;;;;17.85;2.88;;;3.10;99.90;;;;;;5017594;28;20042;-74
2022/01/20 08:26:24;;;;;;;19.45;3.70;;;3.20;99.90;;;;;;5017741;28;20532;-74
2022/01/20 08:28:49;;;;;;;15.93;3.33;;;3.20;99.90;;;;;;5017553;28;20124;-74
2022/01/20 08:31:15;;;;;;;23.75;4.00;;;3.30;99.90;;;;;;5017561;28;20045;-74
2022/01/20 08:33:40;;;;;;;15.30;3.05;;;3.30;99.90;;;;;;5017600;28;20492;-74
2022/01/20 08:36:06;;;;;;;17.90;3.65;;;3.40;99.90;;;;;;5017042;28;20037;-74
2022/01/20 08:38:32;;;;;;;23.50;3.70;;;3.40;99.90;;;;;;5017039;28;20048;-74
2022/01/20 08:40:57;;;;;;;18.02;3.17;;;3.40;99.90;;;;;;5016920;28;20145;-74
2022/01/20 08:43:23;;;;;;;22.75;3.13;;;3.50;99.90;;;;;;5016930;28;20545;-74
2022/01/20 08:45:48;;;;;;;19.08;3.95;;;3.50;99.90;;;;;;5017174;28;20044;-74
2022/01/20 08:48:14;;;;;;;21.92;3.65;;;3.50;99.90;;;;;;5016826;28;20511;-73
2022/01/20 08:50:42;;;;;;;18.13;3.65;;;3.50;99.90;;;;;;5016710;28;20124;-74
2022/01/20 08:53:08;;;;;;;19.50;3.60;;;3.40;99.90;;;;;;5033054;28;20041;-74
2022/01/20 08:55:36;;;;;;;17.30;2.95;;;3.30;99.90;;;;;;5016586;28;20423;-74
2022/01/20 08:58:02;;;;;;;18.70;3.38;;;3.20;99.90;;;;;;5017084;28;20132;-74
2022/01/20 09:00:30;;;;;;;19.10;3.13;;;3.10;99.90;;;;;;5016577;28;20124;-74
2022/01/20 09:02:56;;;;;;;19.98;3.40;;;3.00;99.90;;;;;;5000359;28;20033;-74
2022/01/20 09:05:22;;;;;;;17.60;2.80;;;2.90;99.90;;;;;;5000604;28;20120;-74
2022/01/20 09:07:47;;;;;;;16.60;2.88;;;2.90;99.90;;;;;;5016467;28;20491;-74
2022/01/20 09:10:19;;;;;;;13.68;2.60;;;2.80;99.90;;;;;;5017538;28;20041;-74
2022/01/20 09:15:29;;;;;;;13.98;1.90;;;2.70;99.90;;;;;;5016757;28;20053;-73
2022/01/20 09:17:56;;;;;;;11.48;1.90;;;2.60;99.90;;;;;;5016352;28;20045;-73
2022/01/20 09:20:23;;;;;;;14.45;2.28;;;2.70;99.90;;;;;;5016258;28;20049;-73
2022/01/20 09:22:50;;;;;;;12.57;1.85;;;2.70;99.90;;;;;;5016295;28;20041;-73
2022/01/20 09:25:16;;;;;;;14.88;2.60;;;2.80;99.90;;;;;;5015915;28;20064;-73
2022/01/20 09:27:43;;;;;;;14.60;2.28;;;2.80;99.90;;;;;;5016195;28;20495;-73
2022/01/20 09:30:09;;;;;;;13.70;3.17;;;2.80;99.90;;;;;;5015974;28;20499;-73
2022/01/20 09:32:38;;;;;;;11.77;2.42;;;2.80;99.90;;;;;;5016090;28;20059;-73
2022/01/20 09:35:05;;;;;;;12.80;2.25;;;2.90;99.90;;;;;;5016033;28;20049;-73
2022/01/20 09:37:31;;;;;;;13.52;2.30;;;3.00;99.90;;;;;;5016162;28;20053;-74
2022/01/20 09:39:57;;;;;;;12.18;2.22;;;3.20;99.90;;;;;;4999787;28;20427;-73
2022/01/20 09:42:24;;;;;;;11.68;2.13;;;3.30;99.90;;;;;;5032292;28;20046;-73
2022/01/20 09:44:52;;;;;;;16.20;2.28;;;3.30;99.90;;;;;;4999461;28;20041;-73
2022/01/20 09:47:18;;;;;;;18.73;2.97;;;3.30;99.90;;;;;;5032147;28;20112;-73
2022/01/20 09:49:44;;;;;;;16.25;2.95;;;3.20;99.90;;;;;;5015699;28;20045;-73
2022/01/20 09:52:10;;;;;;;12.95;2.08;;;3.10;99.90;;;;;;5016360;28;20399;-73
2022/01/20 09:54:38;;;;;;;11.68;1.80;;;3.00;99.90;;;;;;5015560;28;20521;-73
2022/01/20 09:57:04;;;;;;;12.02;1.83;;;3.00;99.90;;;;;;5032116;28;20043;-74
2022/01/20 09:59:31;;;;;;;14.13;2.35;;;2.90;99.90;;;;;;5032385;28;20076;-74
2022/01/20 10:01:58;;;;;;;11.65;1.90;;;2.90;99.90;;;;;;5015778;28;20037;-74
2022/01/20 10:04:31;;;;;;;11.32;2.13;;;2.90;99.90;;;;;;4999417;28;20033;-74
2022/01/20 10:07:02;;;;;;;10.55;1.80;;;2.90;99.90;;;;;;5015446;28;20120;-74
2022/01/20 10:09:41;;;;;;;11.18;1.73;;;2.90;99.90;;;;;;4999117;28;20474;-74
2022/01/20 10:12:10;;;;;;;11.25;2.38;;;3.00;99.90;;;;;;4999213;28;20038;-74
2022/01/20 10:14:47;;;;;;;9.38;2.10;;;3.00;99.90;;;;;;5032125;28;20049;-74
2022/01/20 10:17:19;;;;;;;10.80;1.88;;;3.20;99.90;;;;;;4999047;28;20052;-74
2022/01/20 10:19:46;;;;;;;19.40;2.60;;;3.40;99.90;;;;;;4998868;28;20129;-73
2022/01/20 10:22:14;;;;;;;11.98;2.65;;;3.40;99.90;;;;;;5015182;28;20120;-73
2022/01/20 10:24:40;;;;;;;15.77;2.45;;;3.50;99.90;;;;;;4999197;28;20095;-74
2022/01/20 10:27:12;;;;;;;14.02;2.67;;;3.40;99.90;;;;;;5015729;28;20033;-74
2022/01/20 10:29:38;;;;;;;11.75;2.00;;;3.40;99.90;;;;;;5015675;28;20099;-74
2022/01/20 10:32:03;;;;;;;15.85;2.50;;;3.20;99.90;;;;;;5015312;28;20128;-74
2022/01/20 10:34:34;;;;;;;12.55;2.65;;;3.20;99.90;;;;;;5015419;28;20045;-74
2022/01/20 10:37:04;;;;;;;14.60;2.50;;;3.10;99.90;;;;;;5018968;28;20049;-74
2022/01/20 10:39:40;;;;;;;15.27;2.53;;;3.10;99.90;;;;;;5035950;28;20041;-74
2022/01/20 10:42:08;;;;;;;15.88;3.80;;;3.00;99.90;;;;;;5019370;28;20055;-74
2022/01/20 10:44:53;;;;;;;19.90;3.40;;;3.10;99.90;;;;;;5019318;28;20400;-74
2022/01/20 10:47:27;;;;;;;13.10;2.72;;;3.20;99.90;;;;;;5019435;28;20044;-74
2022/01/20 10:49:53;;;;;;;19.45;2.75;;;3.30;99.90;;;;;;5035479;28;20084;-74
2022/01/20 10:52:21;;;;;;;12.50;2.58;;;3.30;99.90;;;;;;5018918;28;20041;-74
2022/01/20 10:54:53;;;;;;;14.63;3.13;;;3.40;99.90;;;;;;5002749;28;20037;-74
2022/01/20 10:57:27;;;;;;;13.73;2.95;;;3.50;99.90;;;;;;5002559;28;20128;-73
2022/01/20 10:59:55;;;;;;;12.65;2.50;;;3.60;99.90;;;;;;5018687;28;20128;-74
2022/01/20 11:02:25;;;;;;;15.43;2.13;;;3.70;99.90;;;;;;5018671;28;20046;-74
2022/01/20 11:04:51;;;;;;;15.70;2.78;;;3.90;99.90;;;;;;5035265;28;20442;-74
2022/01/20 11:07:17;;;;;;;15.32;3.30;;;4.00;99.90;;;;;;5018729;28;20411;-74
2022/01/20 11:09:45;;;;;;;18.52;2.75;;;4.10;99.90;;;;;;5035152;28;20042;-75
2022/01/20 11:12:13;;;;;;;18.70;2.92;;;4.20;99.90;;;;;;5018591;28;20045;-75
2022/01/20 11:14:40;;;;;;;19.90;3.00;;;4.50;99.90;;;;;;5018656;28;20041;-75
2022/01/20 11:17:06;;;;;;;19.58;3.08;;;4.60;99.90;;;;;;5018533;28;20064;-75
2022/01/20 11:19:37;;;;;;;18.02;2.55;;;4.60;99.90;;;;;;5018454;28;20072;-75
2022/01/20 11:22:12;;;;;;;18.70;2.78;;;4.70;99.90;;;;;;5002013;28;20499;-75
2022/01/20 11:24:39;;;;;;;17.95;3.28;;;4.90;99.90;;;;;;5002049;28;20038;-75
2022/01/20 11:27:07;;;;;;;20.38;2.90;;;5.00;99.90;;;;;;5018418;28;20033;-75
2022/01/20 11:29:49;;;;;;;16.65;3.28;;;5.10;99.90;;;;;;5018340;28;20053;-75
2022/01/20 11:32:25;;;;;;;17.33;4.07;;;5.10;99.90;;;;;;5018198;28;20060;-75
2022/01/20 11:35:09;;;;;;;14.75;2.72;;;5.20;99.90;;;;;;5001986;28;20049;-75
2022/01/20 11:37:39;;;;;;;17.42;2.83;;;5.70;99.90;;;;;;5018209;28;20121;-75
2022/01/20 11:40:13;;;;;;;16.13;2.75;;;6.20;99.90;;;;;;5018042;28;20045;-75
2022/01/20 11:42:39;;;;;;;12.60;2.42;;;6.90;99.90;;;;;;5001844;28;20146;-75
2022/01/20 11:45:34;;;;;;;12.93;2.30;;;7.40;99.20;;;;;;5018014;28;20388;-75
2022/01/20 11:48:18;;;;;;;14.18;2.80;;;8.10;97.20;;;;;;5017582;28;20044;-75
2022/01/20 11:50:45;;;;;;;16.60;3.40;;;8.60;93.00;;;;;;5018346;28;20094;-75
2022/01/20 11:53:18;;;;;;;15.20;2.70;;;8.70;94.20;;;;;;5017713;28;20048;-75
2022/01/20 11:55:43;;;;;;;;;;;8.40;93.10;;;;;;5018252;28;20052;-74
2022/01/20 11:58:14;;;;;;;20.58;3.60;;;7.90;90.00;;;;;;5018029;28;19921;-75
2022/01/20 12:00:41;;;;;;;19.48;2.92;;;7.20;94.60;;;;;;5001254;28;20043;-75
2022/01/20 12:03:12;;;;;;;18.17;2.80;;;6.60;97.50;;;;;;5017697;28;20087;-75
2022/01/20 12:05:37;;;;;;;17.50;2.88;;;6.10;99.90;;;;;;5001652;28;20099;-75
2022/01/20 12:08:20;;;;;;;20.52;3.67;;;5.60;99.90;;;;;;5017751;28;20430;-75
2022/01/20 12:11:07;;;;;;;22.43;4.17;;;5.40;99.90;;;;;;5017520;28;20049;-75
2022/01/20 12:13:44;;;;;;;17.00;4.00;;;5.10;99.90;;;;;;5017773;28;20053;-75
2022/01/20 12:16:10;;;;;;;14.70;3.40;;;5.10;99.90;;;;;;5001225;28;20168;-75
2022/01/20 12:18:35;;;;;;;17.02;3.17;;;5.60;99.90;;;;;;5017703;28;20447;-75
2022/01/20 12:21:04;;;;;;;19.40;3.28;;;6.20;99.90;;;;;;5017213;28;20128;-75
2022/01/20 12:23:30;;;;;;;16.88;2.95;;;6.90;99.90;;;;;;5033823;28;20037;-75
2022/01/20 12:26:03;;;;;;;19.58;2.92;;;7.60;97.90;;;;;;5017542;28;20132;-75
2022/01/20 12:28:29;;;;;;;13.57;2.50;;;8.70;94.20;;;;;;5017208;28;20514;-75
2022/01/20 12:31:00;;;;;;;19.70;2.85;;;9.30;90.30;;;;;;5001025;28;20037;-75
2022/01/20 12:33:28;;;;;;;12.38;2.95;;;9.00;87.70;;;;;;5017380;28;20057;-75
2022/01/20 12:35:54;;;;;;;13.57;2.75;;;8.50;89.30;;;;;;5017135;28;20053;-75
2022/01/20 12:38:27;;;;;;;13.25;2.53;;;9.20;87.80;;;;;;5017287;28;20511;-75
2022/01/20 12:41:11;;;;;;;17.05;3.70;;;10.40;82.80;;;;;;5016732;28;20515;-75
2022/01/20 12:43:50;;;;;;;17.88;2.63;;;11.80;76.40;;;;;;5017053;28;20088;-75
2022/01/20 12:46:18;;;;;;;15.13;3.47;;;12.80;73.30;;;;;;5017219;28;20088;-75
2022/01/20 12:49:09;;;;;;;16.67;3.47;;;13.50;69.90;;;;;;5017059;28;20448;-75
2022/01/20 12:51:39;;;;;;;15.55;2.88;;;13.90;66.80;;;;;;5000672;28;20042;-75
2022/01/20 12:54:29;;;;;;;13.95;3.13;;;14.50;66.60;;;;;;5016655;28;20045;-75
2022/01/20 12:57:05;;;;;;;15.43;3.38;;;14.90;62.70;;;;;;4988956;28;20049;-75
2022/01/20 12:59:39;;;;;;;15.35;3.20;;;15.20;61.50;;;;;;5015589;28;20037;-75
2022/01/20 13:02:23;;;;;;;13.57;2.90;;;15.40;60.40;;;;;;5016859;28;20030;-75
2022/01/20 13:04:56;;;;;;;16.02;2.75;;;15.00;59.90;;;;;;5016837;28;20083;-75
2022/01/20 13:07:21;;;;;;;13.75;3.35;;;14.10;58.60;;;;;;5016863;28;20077;-75
2022/01/20 13:09:57;;;;;;;13.90;3.25;;;12.70;62.80;;;;;;5016764;28;20080;-75
2022/01/20 13:12:40;;;;;;;16.98;3.08;;;11.40;65.40;;;;;;5033687;28;20380;-75
2022/01/20 13:15:17;;;;;;;18.43;2.93;;;10.00;65.50;;;;;;5032844;28;20045;-75
2022/01/20 13:17:44;;;;;;;9.23;2.60;;;8.90;71.60;;;;;;5016628;28;20402;-75
2022/01/20 13:20:22;;;;;;;11.73;2.40;;;8.00;77.80;;;;;;5016117;28;20056;-75
2022/01/20 13:23:08;;;;;;;17.08;2.80;;;7.40;81.90;;;;;;5016234;28;20037;-74
2022/01/20 13:25:40;;;;;;;13.63;2.58;;;7.20;86.20;;;;;;5016208;28;20412;-74
2022/01/20 13:28:11;;;;;;;17.15;2.78;;;7.80;86.60;;;;;;5032646;28;20041;-74
2022/01/20 13:30:47;;;;;;;12.60;2.55;;;8.80;81.50;;;;;;5015996;28;20048;-75
2022/01/20 13:33:22;;;;;;;13.45;2.78;;;9.80;76.80;;;;;;4999729;28;20069;-75
2022/01/20 13:35:59;;;;;;;15.30;2.47;;;10.80;73.10;;;;;;5032473;28;20041;-75
2022/01/20 13:38:33;;;;;;;10.90;2.50;;;11.70;69.00;;;;;;5016730;28;20041;-75
2022/01/20 13:41:12;;;;;;;12.57;2.55;;;12.60;66.30;;;;;;5032276;28;20038;-75
2022/01/20 13:46:42;;;;;;;12.05;2.72;;;13.00;62.40;;;;;;5016155;28;20045;-73
2022/01/20 13:49:13;;;;;;;15.88;2.38;;;12.50;63.70;;;;;;5016002;28;20124;-74
2022/01/20 13:51:40;;;;;;;11.73;2.33;;;12.70;63.60;;;;;;5015994;28;20041;-74
2022/01/20 13:54:06;;;;;;;12.88;2.92;;;12.70;62.30;;;;;;5032258;28;20048;-74
2022/01/20 13:56:31;;;;;;;13.30;2.42;;;12.30;62.70;;;;;;5015941;28;20095;-74
2022/01/20 13:59:06;;;;;;;13.32;2.55;;;11.40;64.50;;;;;;5015642;28;20492;-75
2022/01/20 14:01:31;;;;;;;14.40;2.63;;;10.40;66.00;;;;;;5015498;28;20094;-75
2022/01/20 14:03:57;;;;;;;12.48;2.47;;;9.40;69.30;;;;;;5015592;28;20029;-75
2022/01/20 14:06:23;;;;;;;10.93;2.35;;;8.50;72.90;;;;;;5015580;28;20183;-75